Time;durP1;ratioP1;P1;durP2;ratioP2;P2;SDS_P1;SDS_P2;PMS_P1;PMS_P2;Temp;Humidity;BMP_temperature;BMP_pressure;BME280_temperature;BME280_humidity;BME280_pressure;Samples;Min_cycle;Max_cycle;Signal;HPM_P1;HPM_P2
2021/07/06 00:01:56;;;;;;;;;;;;;;;22.58;72.56;100132.50;5032246;28;1930;-42
2021/07/06 00:04:22;;;;;;;;;;;;;;;22.72;72.07;100146.22;5031802;28;1804;-43
2021/07/06 00:06:49;;;;;;;;;;;;;;;22.82;71.83;100149.56;5033300;28;1100;-43
2021/07/06 00:09:15;;;;;;;;;;;;;;;22.89;71.90;100145.16;5031488;28;1880;-43
2021/07/06 00:11:42;;;;;;;;;;;;;;;22.96;71.67;100146.13;5027574;28;1821;-43
2021/07/06 00:14:09;;;;;;;;;;;;;;;22.88;71.68;100151.56;5031773;28;1829;-43
2021/07/06 00:16:37;;;;;;;;;;;;;;;22.92;71.73;100139.41;5032276;28;1840;-43
2021/07/06 00:19:03;;;;;;;;;;;;;;;22.87;71.83;100147.19;5032096;28;1926;-43
2021/07/06 00:21:30;;;;;;;;;;;;;;;22.81;72.08;100134.41;5031582;28;1579;-43
2021/07/06 00:23:56;;;;;;;;;;;;;;;22.71;72.22;100133.78;5022994;28;1782;-43
2021/07/06 00:26:22;;;;;;;;;;;;;;;22.82;71.99;100149.56;5031970;28;1663;-43
2021/07/06 00:28:49;;;;;;;;;;;;;;;22.80;72.54;100130.00;5031911;28;1750;-43
2021/07/06 00:31:15;;;;;;;;;;;;;;;22.88;72.17;100151.56;5030473;28;1727;-43
2021/07/06 00:33:43;;;;;;;;;;;;;;;22.84;72.01;100147.53;5031420;28;1752;-43
2021/07/06 00:36:10;;;;;;;;;;;;;;;22.93;71.80;100149.16;5022744;28;1066;-43
2021/07/06 00:38:37;;;;;;;;;;;;;;;22.92;71.79;100131.31;5021413;28;1977;-43
2021/07/06 00:41:03;;;;;;;;;;;;;;;22.95;71.76;100144.44;5023006;28;1864;-43
2021/07/06 00:43:30;;;;;;;;;;;;;;;22.92;71.88;100130.47;5026037;28;1884;-44
2021/07/06 00:45:57;;;;;;;;;;;;;;;22.94;71.59;100153.56;5035626;28;1733;-43
2021/07/06 00:48:24;;;;;;;;;;;;;;;22.94;71.56;100152.69;5035610;28;2382;-43
2021/07/06 00:50:52;;;;;;;;;;;;;;;22.72;72.23;100143.53;5027733;28;1088;-43
2021/07/06 00:53:18;;;;;;;;;;;;;;;22.73;72.28;100164.09;5022119;28;2019;-43
2021/07/06 00:55:46;;;;;;;;;;;;;;;22.78;71.99;100153.59;5027811;28;1748;-43
2021/07/06 00:58:14;;;;;;;;;;;;;;;22.80;72.00;100167.75;5035686;28;1812;-43
2021/07/06 01:00:41;;;;;;;;;;;;;;;22.77;72.11;100158.16;5033333;28;1969;-44
2021/07/06 01:03:07;;;;;;;;;;;;;;;22.81;72.14;100147.88;5035753;28;1539;-43
2021/07/06 01:05:34;;;;;;;;;;;;;;;22.85;72.00;100149.22;5033475;28;2024;-43
2021/07/06 01:08:02;;;;;;;;;;;;;;;22.88;71.71;100151.56;5018828;28;1807;-43
2021/07/06 01:10:28;;;;;;;;;;;;;;;22.84;71.68;100152.94;5025945;28;1827;-43
2021/07/06 01:12:55;;;;;;;;;;;;;;;22.72;72.25;100165.09;5036270;28;1089;-43
2021/07/06 01:15:23;;;;;;;;;;;;;;;22.75;72.16;100153.97;5034906;28;2060;-43
2021/07/06 01:17:58;;;;;;;;;;;;;;;22.76;72.17;100148.41;5025155;28;1979;-43
2021/07/06 01:20:25;;;;;;;;;;;;;;;22.81;71.98;100155.97;5034795;28;1980;-43
2021/07/06 01:22:52;;;;;;;;;;;;;;;22.85;71.68;100154.59;5016620;28;1761;-43
2021/07/06 01:25:19;;;;;;;;;;;;;;;22.88;71.69;100162.34;5024802;28;1679;-44
2021/07/06 01:27:45;;;;;;;;;;;;;;;22.73;72.28;100174.88;5035480;28;1174;-43
2021/07/06 01:30:13;;;;;;;;;;;;;;;22.55;72.93;100167.03;5023916;28;1963;-43
2021/07/06 01:32:41;;;;;;;;;;;;;;;22.48;73.18;100166.84;5029742;28;2363;-43
2021/07/06 01:35:08;;;;;;;;;;;;;;;22.62;73.00;100168.00;5031794;28;1647;-43
2021/07/06 01:37:34;;;;;;;;;;;;;;;22.63;72.75;100173.22;5035984;28;1082;-43
2021/07/06 01:40:03;;;;;;;;;;;;;;;22.74;72.46;100169.31;5034448;28;1977;-43
2021/07/06 01:42:29;;;;;;;;;;;;;;;22.85;72.30;100176.16;5029194;28;1786;-43
2021/07/06 01:45:07;;;;;;;;;;;;;;;22.63;72.64;100172.38;5030510;28;2061;-43
2021/07/06 01:47:36;;;;;;;;;;;;;;;22.55;72.99;100186.72;5025306;28;1849;-43
2021/07/06 01:50:03;;;;;;;;;;;;;;;22.58;72.96;100169.34;5033189;28;1795;-43
2021/07/06 01:52:29;;;;;;;;;;;;;;;22.59;72.88;100181.84;5035380;28;1013;-42
2021/07/06 01:54:56;;;;;;;;;;;;;;;22.48;73.31;100183.03;5028378;28;1838;-43
2021/07/06 01:57:24;;;;;;;;;;;;;;;22.54;72.88;100171.59;5031168;28;2079;-43
2021/07/06 01:59:51;;;;;;;;;;;;;;;22.72;72.53;100198.31;5024753;28;1987;-43
2021/07/06 02:02:17;;;;;;;;;;;;;;;22.71;72.62;100191.22;5046901;22;3576;-59
2021/07/06 02:04:45;;;;;;;;;;;;;;;22.75;72.67;100191.72;5035784;28;1670;-62
2021/07/06 02:07:11;;;;;;;;;;;;;;;22.76;72.47;100193.38;5033759;28;1610;-61
2021/07/06 02:09:38;;;;;;;;;;;;;;;22.74;72.47;100184.63;5033641;28;1508;-59
2021/07/06 02:12:05;;;;;;;;;;;;;;;22.77;72.33;100189.69;5033644;28;1689;-62
2021/07/06 02:14:33;;;;;;;;;;;;;;;22.81;72.18;100196.41;5033133;28;1705;-59
2021/07/06 02:16:59;;;;;;;;;;;;;;;22.81;72.14;100180.22;5027587;28;1569;-62
2021/07/06 02:19:26;;;;;;;;;;;;;;;22.74;72.46;100188.19;5039805;28;1983;-62
2021/07/06 02:21:53;;;;;;;;;;;;;;;22.79;72.49;100204.66;5036746;28;1561;-62
2021/07/06 02:24:19;;;;;;;;;;;;;;;22.80;72.24;100187.50;5032796;28;1448;-62
2021/07/06 02:26:46;;;;;;;;;;;;;;;22.76;72.37;100198.78;5033056;28;1684;-61
2021/07/06 02:29:12;;;;;;;;;;;;;;;22.81;72.33;100197.25;5026838;28;1578;-62
2021/07/06 02:31:40;;;;;;;;;;;;;;;22.90;72.23;100211.53;5042237;28;1546;-59
2021/07/06 02:34:07;;;;;;;;;;;;;;;22.83;71.98;100186.28;5034350;28;1569;-62
2021/07/06 02:36:34;;;;;;;;;;;;;;;22.83;72.07;100188.97;5043555;28;2024;-59
2021/07/06 02:39:00;;;;;;;;;;;;;;;22.86;71.84;100201.25;5036610;28;1973;-62
2021/07/06 02:41:27;;;;;;;;;;;;;;;22.81;71.83;100197.25;5037536;28;1488;-60
2021/07/06 02:43:53;;;;;;;;;;;;;;;22.73;72.00;100215.31;5032699;28;1861;-61
2021/07/06 02:46:20;;;;;;;;;;;;;;;22.78;71.89;100215.59;5035359;28;1633;-61
2021/07/06 02:48:48;;;;;;;;;;;;;;;22.82;71.82;100208.88;5041831;28;1633;-59
2021/07/06 02:51:17;;;;;;;;;;;;;;;22.91;71.58;100218.59;5033725;28;1008;-61
2021/07/06 02:53:43;;;;;;;;;;;;;;;22.86;71.64;100204.81;5031652;28;1634;-65
2021/07/06 02:56:10;;;;;;;;;;;;;;;22.86;71.49;100215.59;5031270;28;1702;-58
2021/07/06 02:58:37;;;;;;;;;;;;;;;22.73;72.24;100205.34;5035126;28;1562;-61
2021/07/06 03:01:03;;;;;;;;;;;;;;;22.63;72.28;100216.34;5040239;28;1975;-61
2021/07/06 03:03:30;;;;;;;;;;;;;;;22.70;72.34;100226.41;5032574;28;1633;-62
2021/07/06 03:05:58;;;;;;;;;;;;;;;22.75;71.90;100213.28;5044658;28;982;-62
2021/07/06 03:08:25;;;;;;;;;;;;;;;22.80;72.05;100219.84;5031674;28;1631;-59
2021/07/06 03:10:52;;;;;;;;;;;;;;;22.82;72.11;100215.09;5034732;28;1558;-59
2021/07/06 03:13:18;;;;;;;;;;;;;;;22.76;72.45;100213.13;5041671;28;1527;-60
2021/07/06 03:15:45;;;;;;;;;;;;;;;22.74;72.56;100222.38;5042691;28;1875;-59
2021/07/06 03:18:11;;;;;;;;;;;;;;;22.66;72.87;100219.69;5044389;28;971;-62
2021/07/06 03:20:38;;;;;;;;;;;;;;;22.64;72.67;100206.38;5030242;28;1914;-59
2021/07/06 03:23:06;;;;;;;;;;;;;;;22.60;73.17;100210.44;5030842;28;1452;-59
2021/07/06 03:25:33;;;;;;;;;;;;;;;22.62;73.34;100222.75;5030807;28;1476;-62
2021/07/06 03:28:01;;;;;;;;;;;;;;;22.74;72.72;100222.38;5032646;28;1208;-64
2021/07/06 03:30:28;;;;;;;;;;;;;;;22.82;72.11;100208.88;5034353;28;1068;-59
2021/07/06 03:32:56;;;;;;;;;;;;;;;22.82;72.45;100220.50;5030321;28;1729;-59
2021/07/06 03:35:22;;;;;;;;;;;;;;;22.86;72.26;100234.47;5030630;28;1600;-58
2021/07/06 03:37:49;;;;;;;;;;;;;;;22.80;72.48;100232.44;5027445;28;1567;-59
2021/07/06 03:40:17;;;;;;;;;;;;;;;22.85;72.16;100240.88;5031746;28;1984;-59
2021/07/06 03:42:44;;;;;;;;;;;;;;;22.87;72.33;100241.53;5035568;28;1697;-59
2021/07/06 03:45:12;;;;;;;;;;;;;;;22.89;72.19;100222.50;5030773;28;1717;-59
2021/07/06 03:47:39;;;;;;;;;;;;;;;22.89;71.91;100227.88;5030955;28;1467;-62
2021/07/06 03:50:07;;;;;;;;;;;;;;;22.75;72.51;100232.97;5030819;28;1476;-62
2021/07/06 03:52:33;;;;;;;;;;;;;;;22.71;72.79;100228.13;5031589;28;1147;-62
2021/07/06 03:55:00;;;;;;;;;;;;;;;22.73;72.73;100234.19;5030792;28;1800;-59
2021/07/06 03:57:31;;;;;;;;;;;;;;;22.72;72.66;100219.00;5030377;28;1772;-62
2021/07/06 03:59:59;;;;;;;;;;;;;;;22.60;73.26;100226.63;5027334;28;1915;-59
2021/07/06 04:02:25;;;;;;;;;;;;;;;22.64;73.30;100234.19;5036182;28;1421;-61
2021/07/06 04:04:52;;;;;;;;;;;;;;;22.73;72.82;100236.88;5033872;28;1883;-61
2021/07/06 04:07:19;;;;;;;;;;;;;;;22.70;72.73;100238.06;5031593;28;1301;-62
2021/07/06 04:09:45;;;;;;;;;;;;;;;22.72;72.79;100229.78;5034726;28;1610;-59
2021/07/06 04:12:12;;;;;;;;;;;;;;;22.80;72.62;100246.78;5037421;28;1487;-62
2021/07/06 04:14:40;;;;;;;;;;;;;;;22.77;72.56;100230.13;5038115;28;1215;-61
2021/07/06 04:17:07;;;;;;;;;;;;;;;22.80;72.57;100237.84;5034725;28;1515;-61
2021/07/06 04:19:33;;;;;;;;;;;;;;;22.82;72.32;100235.84;5033904;28;1914;-59
2021/07/06 04:22:00;;;;;;;;;;;;;;;22.87;72.48;100238.84;5035515;28;1277;-62
2021/07/06 04:24:27;;;;;;;;;;;;;;;22.89;72.29;100241.38;5035326;28;1875;-62
2021/07/06 04:26:54;;;;;;;;;;;;;;;22.87;72.44;100232.63;5035477;28;1637;-59
2021/07/06 04:29:20;;;;;;;;;;;;;;;22.91;72.39;100232.09;5040726;28;1417;-58
2021/07/06 04:31:48;;;;;;;;;;;;;;;22.99;72.14;100253.63;5042189;28;1519;-59
2021/07/06 04:34:15;;;;;;;;;;;;;;;23.02;72.22;100256.00;5042122;28;1589;-62
2021/07/06 04:36:41;;;;;;;;;;;;;;;23.00;72.13;100260.72;5044633;28;1561;-62
2021/07/06 04:39:08;;;;;;;;;;;;;;;23.00;72.28;100241.00;5041078;28;1894;-62
2021/07/06 04:41:35;;;;;;;;;;;;;;;22.95;72.44;100246.91;5044721;28;1906;-58
2021/07/06 04:44:01;;;;;;;;;;;;;;;23.06;71.96;100231.38;5044205;28;1578;-61
2021/07/06 04:46:28;;;;;;;;;;;;;;;23.13;71.88;100237.75;5030822;28;1621;-62
2021/07/06 04:48:56;;;;;;;;;;;;;;;23.11;72.05;100261.38;5036381;28;1480;-62
2021/07/06 04:51:22;;;;;;;;;;;;;;;22.97;72.93;100265.59;5044856;28;1063;-59
2021/07/06 04:53:49;;;;;;;;;;;;;;;22.92;72.73;100258.03;5034855;28;1752;-59
2021/07/06 04:56:16;;;;;;;;;;;;;;;22.93;72.71;100258.88;5035461;28;1637;-62
2021/07/06 04:58:42;;;;;;;;;;;;;;;22.87;73.27;100257.72;5031813;28;1516;-62
2021/07/06 05:01:09;;;;;;;;;;;;;;;22.89;72.85;100274.56;5034808;28;1910;-63
2021/07/06 05:03:36;;;;;;;;;;;;;;;22.97;72.40;100266.44;5030317;28;1574;-63
2021/07/06 05:06:04;;;;;;;;;;;;;;;23.15;71.95;100278.88;5035649;28;1099;-63
2021/07/06 05:08:31;;;;;;;;;;;;;;;23.25;71.75;100281.38;5034556;28;1552;-63
2021/07/06 05:10:57;;;;;;;;;;;;;;;23.32;71.69;100266.19;5036730;28;1629;-59
2021/07/06 05:13:25;;;;;;;;;;;;;;;23.39;71.24;100284.16;5045664;28;1976;-63
2021/07/06 05:15:52;;;;;;;;;;;;;;;23.42;71.40;100286.53;5043575;28;1586;-59
2021/07/06 05:18:18;;;;;;;;;;;;;;;23.42;71.26;100273.03;5035043;28;1532;-63
2021/07/06 05:20:45;;;;;;;;;;;;;;;23.42;71.29;100283.81;5036855;28;1902;-63
2021/07/06 05:23:13;;;;;;;;;;;;;;;23.40;71.08;100293.13;5037097;28;1560;-66
2021/07/06 05:25:39;;;;;;;;;;;;;;;23.47;70.79;100293.25;5036630;28;1594;-63
2021/07/06 05:28:06;;;;;;;;;;;;;;;23.55;71.05;100293.19;5040933;28;1761;-68
2021/07/06 05:30:33;;;;;;;;;;;;;;;23.53;71.16;100297.94;5039887;28;1616;-67
2021/07/06 05:32:59;;;;;;;;;;;;;;;23.53;71.05;100303.31;5032792;28;1713;-68
2021/07/06 05:35:26;;;;;;;;;;;;;;;23.59;70.57;100299.91;5046733;28;1717;-58
2021/07/06 05:37:53;;;;;;;;;;;;;;;23.57;70.78;100323.53;5036123;28;1721;-59
2021/07/06 05:40:20;;;;;;;;;;;;;;;23.61;70.83;100328.41;5039666;28;1906;-62
2021/07/06 05:42:47;;;;;;;;;;;;;;;23.59;70.64;100294.53;5048062;28;978;-65
2021/07/06 05:45:14;;;;;;;;;;;;;;;23.60;70.64;100317.81;5035788;28;1629;-65
2021/07/06 05:47:41;;;;;;;;;;;;;;;23.65;70.94;100322.66;5045836;28;1592;-71
2021/07/06 05:50:09;;;;;;;;;;;;;;;23.61;71.22;100328.41;5035558;28;1594;-60
2021/07/06 05:52:35;;;;;;;;;;;;;;;23.59;70.99;100335.00;5034977;28;1194;-62
2021/07/06 05:55:03;;;;;;;;;;;;;;;23.62;71.03;100329.28;5034765;28;1624;-63
2021/07/06 05:57:31;;;;;;;;;;;;;;;23.59;71.06;100329.59;5033475;28;1855;-64
2021/07/06 05:59:58;;;;;;;;;;;;;;;23.54;71.31;100326.63;5034079;28;1906;-67
2021/07/06 06:02:25;;;;;;;;;;;;;;;23.57;71.22;100337.03;5034160;28;1488;-68
2021/07/06 06:04:51;;;;;;;;;;;;;;;23.58;70.88;100338.75;5035176;28;1614;-64
2021/07/06 06:07:18;;;;;;;;;;;;;;;23.56;70.93;100346.19;5034272;28;1549;-64
2021/07/06 06:09:45;;;;;;;;;;;;;;;23.60;71.21;100345.63;5036041;28;1495;-67
2021/07/06 06:12:11;;;;;;;;;;;;;;;23.57;71.00;100342.44;5032305;28;1514;-64
2021/07/06 06:14:39;;;;;;;;;;;;;;;23.61;70.74;100357.25;5036554;28;1618;-67
2021/07/06 06:17:06;;;;;;;;;;;;;;;23.63;71.01;100331.81;5039857;28;1729;-64
2021/07/06 06:19:33;;;;;;;;;;;;;;;23.66;70.88;100340.56;5030373;28;1551;-68
2021/07/06 06:22:00;;;;;;;;;;;;;;;23.69;71.22;100346.44;5028725;28;1971;-64
2021/07/06 06:24:26;;;;;;;;;;;;;;;23.65;71.05;100344.25;5023523;28;1650;-68
2021/07/06 06:26:53;;;;;;;;;;;;;;;23.61;71.40;100341.91;5034112;28;1570;-64
2021/07/06 06:29:20;;;;;;;;;;;;;;;23.63;71.32;100348.00;5023026;28;1699;-64
2021/07/06 06:31:48;;;;;;;;;;;;;;;23.53;70.89;100346.50;5026719;28;1569;-68
2021/07/06 06:34:14;;;;;;;;;;;;;;;23.49;71.33;100350.56;5019968;28;1623;-64
2021/07/06 06:36:41;;;;;;;;;;;;;;;23.50;71.26;100352.28;5021761;28;1458;-64
2021/07/06 06:39:07;;;;;;;;;;;;;;;23.47;71.62;100353.44;5017697;28;1685;-65
2021/07/06 06:41:34;;;;;;;;;;;;;;;23.51;71.39;100340.44;5021338;28;1973;-66
2021/07/06 06:44:01;;;;;;;;;;;;;;;23.43;71.65;100336.75;5027915;28;1558;-64
2021/07/06 06:46:27;;;;;;;;;;;;;;;23.46;71.17;100351.78;5036502;28;1502;-67
2021/07/06 06:49:00;;;;;;;;;;;;;;;23.48;71.41;100354.31;5036716;28;1443;-66
2021/07/06 06:51:26;;;;;;;;;;;;;;;23.46;71.30;100338.28;5044224;28;1005;-68
2021/07/06 06:53:53;;;;;;;;;;;;;;;23.50;71.45;100353.09;5038426;28;1420;-63
2021/07/06 06:56:20;;;;;;;;;;;;;;;23.52;71.41;100348.38;5043607;28;1531;-63
2021/07/06 06:58:46;;;;;;;;;;;;;;;23.56;71.45;100349.72;5048183;28;1559;-64
2021/07/06 07:01:13;;;;;;;;;;;;;;;23.62;71.67;100356.25;5041258;28;1906;-67
2021/07/06 07:03:39;;;;;;;;;;;;;;;23.63;71.15;100349.84;5034032;28;1527;-65
2021/07/06 07:06:07;;;;;;;;;;;;;;;23.62;71.09;100345.47;5035149;28;1166;-67
2021/07/06 07:08:34;;;;;;;;;;;;;;;23.68;71.11;100347.47;5032474;28;1542;-64
2021/07/06 07:11:01;;;;;;;;;;;;;;;23.65;70.92;100339.69;5036180;28;1567;-67
2021/07/06 07:13:28;;;;;;;;;;;;;;;23.67;71.40;100347.63;5042533;28;1562;-64
2021/07/06 07:15:54;;;;;;;;;;;;;;;23.69;70.86;100345.59;5029735;28;1634;-64
2021/07/06 07:18:21;;;;;;;;;;;;;;;23.71;70.81;100352.47;5033778;28;1507;-65
2021/07/06 07:20:47;;;;;;;;;;;;;;;23.74;71.22;100352.16;5033855;28;1902;-68
2021/07/06 07:23:15;;;;;;;;;;;;;;;23.75;70.77;100345.72;5032188;28;1569;-64
2021/07/06 07:25:42;;;;;;;;;;;;;;;23.75;70.97;100348.41;5034683;28;1580;-63
2021/07/06 07:28:09;;;;;;;;;;;;;;;23.76;70.90;100354.69;5045561;28;1514;-64
2021/07/06 07:30:35;;;;;;;;;;;;;;;23.77;70.76;100377.94;5039065;28;1862;-59
2021/07/06 07:33:02;;;;;;;;;;;;;;;23.73;71.40;100388.25;5038641;28;1630;-65
2021/07/06 07:35:28;;;;;;;;;;;;;;;23.61;72.05;100397.75;5034994;28;1617;-60
2021/07/06 07:37:55;;;;;;;;;;;;;;;23.57;72.16;100402.66;5033562;28;1546;-61
2021/07/06 07:40:23;;;;;;;;;;;;;;;23.60;72.12;100413.13;5033672;28;1633;-60
2021/07/06 07:42:49;;;;;;;;;;;;;;;23.65;73.26;100404.47;5034474;28;1910;-64
2021/07/06 07:45:16;;;;;;;;;;;;;;;23.72;72.41;100400.06;5044339;28;1777;-63
2021/07/06 07:47:43;;;;;;;;;;;;;;;23.77;73.14;100396.84;5033379;28;1768;-62
2021/07/06 07:50:10;;;;;;;;;;;;;;;23.79;72.70;100384.88;5038418;28;1709;-63
2021/07/06 07:52:37;;;;;;;;;;;;;;;23.87;72.44;100383.16;5035860;28;1705;-60
2021/07/06 07:55:04;;;;;;;;;;;;;;;23.86;72.25;100365.28;5045065;28;1873;-63
2021/07/06 07:57:32;;;;;;;;;;;;;;;23.90;72.25;100369.31;5033354;28;1713;-63
2021/07/06 07:59:59;;;;;;;;;;;;;;;23.93;74.25;100347.34;5043182;28;1714;-62
2021/07/06 08:02:25;;;;;;;;;;;;;;;23.93;73.80;100350.03;5042176;28;1902;-62
2021/07/06 08:04:52;;;;;;;;;;;;;;;23.97;74.05;100343.25;5042510;28;1633;-60
2021/07/06 08:07:19;;;;;;;;;;;;;;;23.96;73.63;100342.44;5034700;28;1431;-60
2021/07/06 08:09:45;;;;;;;;;;;;;;;24.02;72.70;100351.69;5032300;28;1490;-60
2021/07/06 08:12:12;;;;;;;;;;;;;;;24.03;72.88;100347.94;5034323;28;1059;-60
2021/07/06 08:14:41;;;;;;;;;;;;;;;24.09;72.71;100347.22;5037410;28;1748;-60
2021/07/06 08:17:08;;;;;;;;;;;;;;;24.10;72.43;100338.13;5046720;28;1532;-60
2021/07/06 08:19:34;;;;;;;;;;;;;;;24.14;73.22;100339.44;5033471;28;1578;-60
2021/07/06 08:22:01;;;;;;;;;;;;;;;24.21;73.69;100345.81;5032983;28;1902;-60
2021/07/06 08:24:27;;;;;;;;;;;;;;;24.25;74.31;100345.44;5033212;28;1578;-60
2021/07/06 08:26:54;;;;;;;;;;;;;;;24.30;74.39;100343.88;5032901;28;1560;-60
2021/07/06 08:29:23;;;;;;;;;;;;;;;24.29;75.37;100344.91;5035997;28;1641;-64
2021/07/06 08:31:50;;;;;;;;;;;;;;;24.33;75.08;100351.63;5041179;28;1601;-60
2021/07/06 08:34:17;;;;;;;;;;;;;;;24.36;75.31;100356.66;5030799;28;1605;-60
2021/07/06 08:36:44;;;;;;;;;;;;;;;24.29;76.81;100349.44;5032977;28;1297;-64
2021/07/06 08:39:10;;;;;;;;;;;;;;;24.27;76.24;100354.19;5031657;28;1993;-62
2021/07/06 08:41:37;;;;;;;;;;;;;;;24.27;75.93;100348.78;5032036;28;1969;-64
2021/07/06 08:44:04;;;;;;;;;;;;;;;24.27;76.86;100348.78;5032804;28;1677;-61
2021/07/06 08:46:31;;;;;;;;;;;;;;;24.24;76.87;100338.38;5035528;28;1633;-64
2021/07/06 08:49:00;;;;;;;;;;;;;;;24.28;76.79;100367.53;5041973;28;1614;-64
2021/07/06 08:51:30;;;;;;;;;;;;;;;24.25;75.89;100361.66;5030875;28;1586;-64
2021/07/06 08:53:56;;;;;;;;;;;;;;;24.26;76.19;100352.53;5021681;28;1781;-64
2021/07/06 08:56:23;;;;;;;;;;;;;;;24.30;76.95;100353.84;5027975;28;1767;-61
2021/07/06 08:58:50;;;;;;;;;;;;;;;24.30;75.66;100343.88;5034937;28;1578;-65
2021/07/06 09:01:17;;;;;;;;;;;;;;;24.27;76.07;100341.53;5037035;28;1989;-67
2021/07/06 09:03:53;;;;;;;;;;;;;;;24.29;75.96;100344.06;5041860;28;1542;-62
2021/07/06 09:06:21;;;;;;;;;;;;;;;24.27;75.68;100351.50;5031749;28;1609;-67
2021/07/06 09:08:52;;;;;;;;;;;;;;;24.28;75.96;100353.19;5036470;28;1764;-65
2021/07/06 09:11:19;;;;;;;;;;;;;;;24.28;75.96;100350.50;5036557;28;1519;-63
2021/07/06 09:13:45;;;;;;;;;;;;;;;24.24;75.88;100349.19;5027348;28;1555;-63
2021/07/06 09:16:20;;;;;;;;;;;;;;;24.22;75.77;100343.94;5036136;28;1484;-65
2021/07/06 09:18:47;;;;;;;;;;;;;;;24.22;75.65;100358.28;5037634;28;1443;-64
2021/07/06 09:21:14;;;;;;;;;;;;;;;24.18;74.86;100354.25;5032983;28;1906;-66
2021/07/06 09:23:43;;;;;;;;;;;;;;;24.25;75.54;100345.44;5029477;28;1623;-64
2021/07/06 09:26:13;;;;;;;;;;;;;;;24.22;75.92;100335.84;5036351;28;1521;-67
2021/07/06 09:28:41;;;;;;;;;;;;;;;24.23;75.79;100348.31;5038170;28;1301;-65
2021/07/06 09:31:21;;;;;;;;;;;;;;;24.24;75.97;100351.88;5044011;28;1512;-62
2021/07/06 09:33:49;;;;;;;;;;;;;;;24.24;76.27;100349.19;5035784;28;1606;-65
2021/07/06 09:36:24;;;;;;;;;;;;;;;24.17;76.51;100341.78;5041913;28;1040;-65
2021/07/06 09:38:59;;;;;;;;;;;;;;;24.19;76.42;100344.28;5040425;28;1580;-64
2021/07/06 09:41:26;;;;;;;;;;;;;;;24.16;75.77;100347.38;5041639;28;1985;-63
2021/07/06 09:43:53;;;;;;;;;;;;;;;24.18;75.87;100340.75;5035570;28;1619;-65
2021/07/06 09:46:19;;;;;;;;;;;;;;;24.15;75.47;100343.84;5037193;28;1631;-65
2021/07/06 09:48:47;;;;;;;;;;;;;;;24.13;75.74;100328.81;5031577;28;1699;-62
2021/07/06 09:51:16;;;;;;;;;;;;;;;24.14;76.22;100330.50;5031229;28;1528;-66
2021/07/06 09:53:45;;;;;;;;;;;;;;;24.15;75.99;100356.47;5040349;28;1508;-65
2021/07/06 09:56:15;;;;;;;;;;;;;;;24.11;76.06;100344.34;5040443;28;1632;-63
2021/07/06 09:58:51;;;;;;;;;;;;;;;24.12;75.90;100348.75;5036214;28;1594;-66
2021/07/06 10:01:18;;;;;;;;;;;;;;;24.14;75.31;100349.41;5043200;28;1977;-63
2021/07/06 10:03:45;;;;;;;;;;;;;;;24.15;74.92;100356.47;5035472;28;1629;-66
2021/07/06 10:06:12;;;;;;;;;;;;;;;24.09;75.36;100347.22;5036583;28;978;-66
2021/07/06 10:08:40;;;;;;;;;;;;;;;24.12;75.18;100346.88;5037499;28;1721;-61
2021/07/06 10:11:07;;;;;;;;;;;;;;;24.10;74.90;100354.31;5034979;28;1602;-68
2021/07/06 10:13:35;;;;;;;;;;;;;;;24.10;74.89;100354.31;5033909;28;1569;-60
2021/07/06 10:16:02;;;;;;;;;;;;;;;24.09;74.41;100347.22;5035354;28;1649;-66
2021/07/06 10:18:29;;;;;;;;;;;;;;;24.09;74.39;100341.81;5044076;28;1636;-60
2021/07/06 10:20:56;;;;;;;;;;;;;;;24.11;75.02;100353.28;5034658;28;1578;-60
2021/07/06 10:23:24;;;;;;;;;;;;;;;24.14;74.31;100358.34;5035121;28;2353;-66
2021/07/06 10:25:53;;;;;;;;;;;;;;;24.13;74.53;100343.19;5031928;28;1564;-60
2021/07/06 10:28:20;;;;;;;;;;;;;;;24.15;73.98;100362.75;5032820;28;1621;-65
2021/07/06 10:30:49;;;;;;;;;;;;;;;24.15;74.00;100353.78;5034539;28;1520;-65
2021/07/06 10:33:17;;;;;;;;;;;;;;;24.16;73.95;100355.47;5036302;28;1300;-59
2021/07/06 10:35:46;;;;;;;;;;;;;;;24.16;74.55;100356.31;5033148;28;2001;-63
2021/07/06 10:38:31;;;;;;;;;;;;;;;24.19;73.81;100358.66;5033311;28;1564;-59
2021/07/06 10:41:00;;;;;;;;;;;;;;;24.22;74.29;100366.38;5032678;28;1520;-62
2021/07/06 10:43:30;;;;;;;;;;;;;;;24.21;73.69;100339.53;5032655;28;1910;-60
2021/07/06 10:46:13;;;;;;;;;;;;;;;24.21;73.60;100351.22;5030751;28;1555;-63
2021/07/06 10:48:41;;;;;;;;;;;;;;;24.18;73.96;100346.16;5029609;28;1539;-60
2021/07/06 10:51:08;;;;;;;;;;;;;;;24.16;73.77;100352.78;5034478;28;1257;-60
2021/07/06 10:53:35;;;;;;;;;;;;;;;24.14;73.67;100347.53;5031984;28;1603;-60
2021/07/06 10:56:05;;;;;;;;;;;;;;;24.13;73.70;100347.72;5030716;28;1579;-63
2021/07/06 10:58:50;;;;;;;;;;;;;;;24.11;73.55;100345.19;5033245;28;1551;-63
2021/07/06 11:01:35;;;;;;;;;;;;;;;24.06;73.77;100341.38;5033504;28;1560;-64
2021/07/06 11:04:03;;;;;;;;;;;;;;;24.04;73.50;100344.25;5032460;28;1481;-63
2021/07/06 11:06:48;;;;;;;;;;;;;;;24.05;73.63;100356.72;5033175;28;1331;-60
2021/07/06 11:09:35;;;;;;;;;;;;;;;24.06;74.03;100353.00;5023975;28;1742;-60
2021/07/06 11:12:16;;;;;;;;;;;;;;;24.09;73.39;100352.63;5033520;28;1670;-60
2021/07/06 11:14:47;;;;;;;;;;;;;;;23.91;71.27;100349.38;5033198;28;1548;-60
2021/07/06 11:17:14;;;;;;;;;;;;;;;23.18;70.72;100343.28;5031343;28;1603;-60
2021/07/06 11:19:42;;;;;;;;;;;;;;;22.61;70.67;100336.94;5031098;28;1625;-63
2021/07/06 11:22:09;;;;;;;;;;;;;;;22.26;69.80;100353.44;5033964;28;1910;-60
2021/07/06 11:24:39;;;;;;;;;;;;;;;22.06;69.41;100348.34;5033997;28;1720;-60
2021/07/06 11:27:05;;;;;;;;;;;;;;;21.87;69.65;100343.28;5032472;28;1562;-63
2021/07/06 11:29:35;;;;;;;;;;;;;;;21.75;68.79;100334.66;5025350;28;1515;-63
2021/07/06 11:32:17;;;;;;;;;;;;;;;21.69;67.56;100346.09;5026892;28;1618;-60
2021/07/06 11:34:45;;;;;;;;;;;;;;;21.57;67.38;100332.91;5031719;28;1678;-60
2021/07/06 11:37:13;;;;;;;;;;;;;;;21.59;66.96;100330.91;5043818;28;1064;-60
2021/07/06 11:39:39;;;;;;;;;;;;;;;21.65;67.50;100334.78;5028575;28;1822;-63
2021/07/06 11:42:06;;;;;;;;;;;;;;;21.68;67.65;100323.69;5033335;28;1906;-60
2021/07/06 11:44:33;;;;;;;;;;;;;;;21.83;66.74;100340.06;5031432;28;1546;-63
2021/07/06 11:47:10;;;;;;;;;;;;;;;21.95;66.76;100341.44;5030494;28;1630;-62
2021/07/06 11:49:38;;;;;;;;;;;;;;;22.09;67.00;100323.78;5033847;28;1753;-63
2021/07/06 11:52:06;;;;;;;;;;;;;;;22.18;67.89;100328.19;5047251;28;1411;-63
2021/07/06 11:54:33;;;;;;;;;;;;;;;22.30;67.83;100326.00;5026988;28;1584;-64
2021/07/06 11:57:02;;;;;;;;;;;;;;;22.31;67.66;100335.78;5032328;28;1625;-63
2021/07/06 11:59:29;;;;;;;;;;;;;;;;;;5028815;28;1803;-64
2021/07/06 12:02:02;;;;;;;;;;;;;;;22.45;67.96;100323.50;5034684;28;1981;-65
2021/07/06 12:04:29;;;;;;;;;;;;;;;22.62;67.74;100322.47;5032088;28;1637;-63
2021/07/06 12:07:04;;;;;;;;;;;;;;;22.85;67.46;100327.16;5028882;28;1788;-63
2021/07/06 12:09:31;;;;;;;;;;;;;;;23.06;66.59;100323.06;5028964;28;1530;-63
2021/07/06 12:12:07;;;;;;;;;;;;;;;23.23;66.49;100313.91;5039310;28;1448;-63
2021/07/06 12:14:33;;;;;;;;;;;;;;;23.33;66.77;100311.84;5034523;28;1625;-63
2021/07/06 12:17:02;;;;;;;;;;;;;;;23.45;67.10;100311.47;5029829;28;1702;-64
2021/07/06 12:19:29;;;;;;;;;;;;;;;23.52;67.08;100307.06;5032329;28;1555;-63
2021/07/06 12:21:56;;;;;;;;;;;;;;;23.56;67.63;100314.63;5027675;28;1665;-63
2021/07/06 12:24:27;;;;;;;;;;;;;;;23.55;68.25;100312.91;5034987;28;1710;-63
2021/07/06 12:26:54;;;;;;;;;;;;;;;23.62;68.19;100303.13;5028367;28;1717;-63
2021/07/06 12:29:26;;;;;;;;;;;;;;;23.61;67.72;100295.19;5026006;28;1570;-61
2021/07/06 12:31:54;;;;;;;;;;;;;;;23.68;68.05;100323.16;5037433;28;1681;-63
2021/07/06 12:34:20;;;;;;;;;;;;;;;23.72;68.23;100319.09;5042938;28;1969;-63
2021/07/06 12:36:48;;;;;;;;;;;;;;;23.70;67.66;100296.84;5034823;28;1684;-63
2021/07/06 12:39:19;;;;;;;;;;;;;;;23.73;68.64;100304.56;5035874;28;1773;-63
2021/07/06 12:41:48;;;;;;;;;;;;;;;23.73;68.38;100299.16;5036493;28;1555;-64
2021/07/06 12:44:17;;;;;;;;;;;;;;;23.80;68.39;100315.53;5036795;28;1571;-63
2021/07/06 12:46:44;;;;;;;;;;;;;;;23.76;68.90;100306.91;5036639;28;1578;-63
2021/07/06 12:49:10;;;;;;;;;;;;;;;23.78;68.51;100307.59;5036552;28;1527;-64
2021/07/06 12:51:37;;;;;;;;;;;;;;;23.78;68.89;100313.00;5035826;28;1427;-64